Terminal Aerodrome Forecast
Issued by NWS

Home | Current Version | Previous Version | Text Only | Print | Product List | Glossary On
Versions: 1 2 3 4 5 6 7 8 9 10 11 12 13 14 15 16 17 18 19 20 21 22 23 24 25 26 27
607
FTUS41 KGYX 250837 AAA
TAFRKD
TAF AMD
KRKD 250837Z 2509/2606 08005KT 1/2SM FG BKN001
     FM251200 07009KT 2SM -DZ BR OVC003
     FM252200 10012KT 1SM -SHRA BR OVC006
     FM260000 09009G16KT 1/2SM -RA FG OVC003=

USA.gov is the U.S. government's official web portal to all federal, state and local government web resources and services.